createdAt,value
2023-05-03T00:01:23.686Z,14.63
2023-05-03T00:03:53.785Z,13.70
2023-05-03T00:06:22.046Z,14.15
2023-05-03T00:08:49.125Z,13.95
2023-05-03T00:11:16.240Z,15.00
2023-05-03T00:13:43.690Z,15.10
2023-05-03T00:16:10.759Z,14.75
2023-05-03T00:18:37.967Z,15.68
2023-05-03T00:21:05.428Z,15.13
2023-05-03T00:23:32.748Z,16.33
2023-05-03T00:25:59.878Z,17.95
2023-05-03T00:28:27.078Z,14.68
2023-05-03T00:30:54.321Z,15.85
2023-05-03T00:33:21.402Z,16.30
2023-05-03T00:35:48.519Z,14.60
2023-05-03T00:38:15.764Z,14.45
2023-05-03T00:40:43.063Z,14.27
2023-05-03T00:43:12.188Z,14.80
2023-05-03T00:45:39.307Z,15.23
2023-05-03T00:48:06.517Z,15.77
2023-05-03T00:50:33.628Z,15.20
2023-05-03T00:53:01.299Z,14.93
2023-05-03T00:55:33.315Z,14.48
2023-05-03T00:58:00.498Z,15.55
2023-05-03T01:00:27.612Z,14.40
2023-05-03T01:02:54.966Z,14.68
2023-05-03T01:05:22.966Z,15.00
2023-05-03T01:08:03.008Z,14.95
2023-05-03T01:10:37.731Z,15.43
2023-05-03T01:13:04.854Z,14.40
2023-05-03T01:15:54.123Z,14.60
2023-05-03T01:18:23.801Z,14.80
2023-05-03T01:20:51.169Z,15.65
2023-05-03T01:23:28.356Z,16.58
2023-05-03T01:25:55.638Z,16.27
2023-05-03T01:28:22.709Z,15.95
2023-05-03T01:30:51.233Z,17.90
2023-05-03T01:33:25.053Z,16.88
2023-05-03T01:36:05.568Z,16.33
2023-05-03T01:38:34.318Z,15.85
2023-05-03T01:41:03.060Z,16.15
2023-05-03T01:43:33.294Z,15.65
2023-05-03T01:46:00.485Z,16.83
2023-05-03T01:48:27.537Z,15.73
2023-05-03T01:50:54.658Z,14.93
2023-05-03T01:53:21.720Z,15.95
2023-05-03T01:55:48.786Z,14.05
2023-05-03T01:58:16.060Z,14.60
2023-05-03T02:00:43.178Z,16.05
2023-05-03T02:03:10.320Z,14.52
2023-05-03T02:05:37.456Z,14.13
2023-05-03T02:08:04.542Z,14.88
2023-05-03T02:10:31.585Z,15.70
2023-05-03T02:12:58.803Z,15.48
2023-05-03T02:15:25.838Z,14.88
2023-05-03T02:17:54.207Z,15.10
2023-05-03T02:20:21.332Z,14.00
2023-05-03T02:22:48.373Z,14.65
2023-05-03T02:25:15.391Z,14.23
2023-05-03T02:27:42.417Z,14.45
2023-05-03T02:30:09.805Z,14.00
2023-05-03T02:32:36.864Z,16.58
2023-05-03T02:35:03.997Z,15.20
2023-05-03T02:37:31.111Z,15.13
2023-05-03T02:39:58.158Z,15.85
2023-05-03T02:42:25.264Z,14.98
2023-05-03T02:44:52.297Z,15.23
2023-05-03T02:47:19.354Z,16.48
2023-05-03T02:49:46.417Z,17.20
2023-05-03T02:52:13.439Z,15.15
2023-05-03T02:54:40.502Z,15.45
2023-05-03T02:57:07.610Z,16.13
2023-05-03T02:59:34.842Z,15.95
2023-05-03T03:02:01.891Z,15.00
2023-05-03T03:04:28.981Z,15.65
2023-05-03T03:06:56.699Z,15.35
2023-05-03T03:09:23.732Z,14.88
2023-05-03T03:11:53.963Z,17.98
2023-05-03T03:14:20.996Z,16.75
2023-05-03T03:16:47.616Z,18.42
2023-05-03T03:19:15.046Z,17.00
2023-05-03T03:21:41.669Z,16.63
2023-05-03T03:24:08.578Z,18.05
2023-05-03T03:26:35.463Z,20.35
2023-05-03T03:29:02.624Z,19.05
2023-05-03T03:31:29.774Z,19.45
2023-05-03T03:33:56.950Z,18.33
2023-05-03T03:36:24.029Z,19.60
2023-05-03T03:38:51.125Z,19.38
2023-05-03T03:41:19.999Z,19.13
2023-05-03T03:43:47.050Z,20.50
2023-05-03T03:46:14.080Z,19.25
2023-05-03T03:48:41.111Z,16.02
2023-05-03T03:51:08.170Z,17.58
2023-05-03T03:53:36.694Z,15.88
2023-05-03T03:56:03.713Z,16.40
2023-05-03T03:58:30.841Z,16.48
2023-05-03T04:00:58.006Z,19.58
2023-05-03T04:03:25.092Z,17.42
2023-05-03T04:05:52.203Z,15.05
2023-05-03T04:08:19.361Z,16.25
2023-05-03T04:10:46.368Z,17.30
2023-05-03T04:13:13.480Z,15.98
2023-05-03T04:15:40.511Z,15.68
2023-05-03T04:18:08.699Z,16.92
2023-05-03T04:20:36.743Z,17.90
2023-05-03T04:23:03.852Z,16.48
2023-05-03T04:25:32.068Z,18.15
2023-05-03T04:27:59.888Z,15.90
2023-05-03T04:30:26.964Z,17.15
2023-05-03T04:32:55.405Z,15.95
2023-05-03T04:35:22.546Z,17.98
2023-05-03T04:37:49.608Z,16.80
2023-05-03T04:40:19.625Z,17.10
2023-05-03T04:42:46.638Z,17.13
2023-05-03T04:45:14.518Z,17.15
2023-05-03T04:47:41.881Z,17.60
2023-05-03T04:50:10.966Z,17.67
2023-05-03T04:52:38.052Z,17.52
2023-05-03T04:55:05.529Z,16.88
2023-05-03T04:57:32.643Z,17.33
2023-05-03T04:59:59.706Z,15.32
2023-05-03T05:02:27.450Z,16.20
2023-05-03T05:04:54.785Z,15.45
2023-05-03T05:07:21.860Z,16.38
2023-05-03T05:09:48.896Z,19.05
2023-05-03T05:12:15.966Z,15.38
2023-05-03T05:14:43.128Z,15.50
2023-05-03T05:17:10.187Z,16.27
2023-05-03T05:19:37.239Z,17.42
2023-05-03T05:22:04.410Z,18.80
2023-05-03T05:24:31.452Z,17.95
2023-05-03T05:26:58.496Z,18.75
2023-05-03T05:29:25.556Z,19.63
2023-05-03T05:31:53.097Z,19.50
2023-05-03T05:34:20.433Z,19.80
2023-05-03T05:36:47.485Z,20.60
2023-05-03T05:39:14.581Z,19.33
2023-05-03T05:41:41.641Z,19.42
2023-05-03T05:44:08.674Z,19.15
2023-05-03T05:46:35.734Z,21.40
2023-05-03T05:49:02.846Z,22.40
2023-05-03T05:51:31.715Z,20.80
2023-05-03T05:53:58.776Z,19.63
2023-05-03T05:56:26.450Z,21.48
2023-05-03T05:58:53.549Z,20.80
2023-05-03T06:01:20.764Z,21.05
2023-05-03T06:03:47.816Z,22.60
2023-05-03T06:06:14.997Z,21.25
2023-05-03T06:08:42.164Z,24.35
2023-05-03T06:11:09.220Z,22.70
2023-05-03T06:13:38.473Z,21.17
2023-05-03T06:16:06.011Z,21.20
2023-05-03T06:18:33.122Z,21.13
2023-05-03T06:20:59.788Z,21.25
2023-05-03T06:23:28.090Z,21.98
2023-05-03T06:25:55.252Z,20.67
2023-05-03T06:28:22.264Z,21.45
2023-05-03T06:30:50.136Z,20.27
2023-05-03T06:33:17.280Z,20.80
2023-05-03T06:35:43.934Z,21.20
2023-05-03T06:38:11.957Z,22.27
2023-05-03T06:40:38.810Z,23.55
2023-05-03T06:43:05.574Z,23.10
2023-05-03T06:45:32.237Z,23.90
2023-05-03T06:47:59.128Z,23.95
2023-05-03T06:50:26.223Z,23.35
2023-05-03T06:52:53.645Z,25.13
2023-05-03T06:55:20.311Z,26.13
2023-05-03T06:57:52.220Z,23.63
2023-05-03T07:00:20.388Z,27.15
2023-05-03T07:02:47.127Z,25.27
2023-05-03T07:05:13.878Z,24.52
2023-05-03T07:07:40.545Z,26.67
2023-05-03T07:10:07.703Z,25.73
2023-05-03T07:12:34.341Z,24.20
2023-05-03T07:15:00.956Z,23.60
2023-05-03T07:17:27.722Z,23.17
2023-05-03T07:19:54.884Z,23.38
2023-05-03T07:22:24.711Z,24.50
2023-05-03T07:24:55.711Z,25.48
2023-05-03T07:27:22.787Z,25.30
2023-05-03T07:29:49.810Z,24.55
2023-05-03T07:32:17.048Z,25.13
2023-05-03T07:34:44.087Z,24.40
2023-05-03T07:37:11.200Z,26.70
2023-05-03T07:39:38.289Z,26.60
2023-05-03T07:42:05.305Z,25.80
2023-05-03T07:44:32.769Z,27.02
2023-05-03T07:46:59.357Z,26.08
2023-05-03T07:49:26.360Z,27.35
2023-05-03T07:51:53.469Z,27.02
2023-05-03T07:54:20.498Z,26.67
2023-05-03T07:56:47.087Z,29.33
2023-05-03T07:59:14.619Z,29.77
2023-05-03T08:01:41.706Z,28.88
2023-05-03T08:04:09.020Z,30.25
2023-05-03T08:06:36.369Z,30.35
2023-05-03T08:09:04.454Z,32.50
2023-05-03T08:11:31.229Z,31.13
2023-05-03T08:13:57.833Z,31.17
2023-05-03T08:16:24.608Z,28.90
2023-05-03T08:18:51.682Z,29.85
2023-05-03T08:21:19.179Z,27.85
2023-05-03T08:23:46.270Z,29.20
2023-05-03T08:26:14.551Z,28.70
2023-05-03T08:28:41.735Z,26.08
2023-05-03T08:31:08.745Z,27.08
2023-05-03T08:33:35.796Z,26.88
2023-05-03T08:36:02.959Z,27.35
2023-05-03T08:38:29.916Z,24.90
2023-05-03T08:40:59.610Z,27.38
2023-05-03T08:43:28.659Z,25.75
2023-05-03T08:45:55.503Z,25.15
2023-05-03T08:48:22.709Z,26.63
2023-05-03T08:50:52.716Z,24.88
2023-05-03T08:53:19.631Z,26.95
2023-05-03T08:55:46.332Z,26.02
2023-05-03T08:58:13.707Z,23.48
2023-05-03T09:00:44.814Z,24.52
2023-05-03T09:03:12.595Z,24.95
2023-05-03T09:05:41.182Z,24.42
2023-05-03T09:08:09.844Z,24.63
2023-05-03T09:10:40.769Z,25.95
2023-05-03T09:13:08.434Z,23.13
2023-05-03T09:15:36.000Z,23.77
2023-05-03T09:18:09.578Z,25.02
2023-05-03T09:20:37.742Z,24.70
2023-05-03T09:23:04.937Z,25.98
2023-05-03T09:25:41.957Z,25.52
2023-05-03T09:28:09.229Z,23.15
2023-05-03T09:30:36.909Z,23.13
2023-05-03T09:33:04.581Z,24.60
2023-05-03T09:35:34.719Z,24.92
2023-05-03T09:38:02.692Z,23.90
2023-05-03T09:40:30.021Z,23.13
2023-05-03T09:43:08.210Z,22.83
2023-05-03T09:45:38.813Z,23.27
2023-05-03T09:48:07.263Z,23.88
2023-05-03T09:50:37.316Z,23.60
2023-05-03T09:53:05.541Z,25.63
2023-05-03T09:55:41.802Z,24.95
2023-05-03T09:58:09.118Z,23.27
2023-05-03T10:00:40.368Z,23.73
2023-05-03T10:03:12.257Z,23.33
2023-05-03T10:05:49.510Z,26.80
2023-05-03T10:08:20.651Z,23.73
2023-05-03T10:10:48.956Z,22.27
2023-05-03T10:13:16.074Z,22.10
2023-05-03T10:15:44.110Z,20.63
2023-05-03T10:18:14.025Z,22.40
2023-05-03T10:20:44.610Z,23.95
2023-05-03T10:23:12.778Z,23.88
2023-05-03T10:25:41.103Z,23.40
2023-05-03T10:28:09.294Z,23.58
2023-05-03T10:30:40.403Z,23.02
2023-05-03T10:33:10.728Z,25.45
2023-05-03T10:35:40.186Z,24.10
2023-05-03T10:38:14.660Z,24.73
2023-05-03T10:40:43.265Z,23.38
2023-05-03T10:43:32.105Z,24.13
2023-05-03T10:45:59.898Z,24.92
2023-05-03T10:48:28.412Z,24.50
2023-05-03T10:50:55.896Z,27.30
2023-05-03T10:53:38.193Z,24.88
2023-05-03T10:56:10.970Z,26.10
2023-05-03T10:58:48.541Z,23.55
2023-05-03T11:01:16.914Z,25.70
2023-05-03T11:04:00.749Z,26.58
2023-05-03T11:06:32.561Z,25.05
2023-05-03T11:09:00.360Z,25.25
2023-05-03T11:11:27.528Z,24.25
2023-05-03T11:13:58.386Z,27.90
2023-05-03T11:16:25.914Z,27.70
2023-05-03T11:18:53.195Z,26.70
2023-05-03T11:21:21.065Z,25.42
2023-05-03T11:23:48.351Z,26.60
2023-05-03T11:26:16.273Z,25.27
2023-05-03T11:28:44.094Z,25.98
2023-05-03T11:31:12.650Z,24.83
2023-05-03T11:33:40.651Z,25.35
2023-05-03T11:36:09.658Z,23.13
2023-05-03T11:38:39.253Z,24.55
2023-05-03T11:41:14.078Z,24.30
2023-05-03T11:43:42.023Z,22.95
2023-05-03T11:46:09.457Z,24.52
2023-05-03T11:48:37.157Z,23.45
2023-05-03T11:51:08.492Z,23.13
2023-05-03T11:53:37.778Z,19.42
2023-05-03T11:56:07.320Z,20.33
2023-05-03T11:58:34.403Z,21.88
2023-05-03T12:01:01.567Z,21.77
2023-05-03T12:03:32.069Z,20.58
2023-05-03T12:06:01.833Z,20.13
2023-05-03T12:08:32.008Z,20.02
2023-05-03T12:11:03.098Z,20.60
2023-05-03T12:13:39.321Z,18.77
2023-05-03T12:16:12.858Z,17.50
2023-05-03T12:18:50.291Z,17.08
2023-05-03T12:23:50.562Z,16.10
2023-05-03T12:26:20.444Z,15.57
2023-05-03T12:28:48.653Z,17.55
2023-05-03T12:31:17.935Z,14.95
2023-05-03T12:34:00.868Z,14.95
2023-05-03T12:36:36.898Z,15.10
2023-05-03T12:39:08.684Z,15.77
2023-05-03T12:44:10.368Z,14.55
2023-05-03T12:46:38.963Z,13.48
2023-05-03T12:49:08.089Z,12.57
2023-05-03T12:51:36.321Z,12.68
2023-05-03T12:54:10.027Z,13.18
2023-05-03T12:59:39.199Z,10.85
2023-05-03T13:06:59.525Z,11.90
2023-05-03T13:09:37.955Z,10.17
2023-05-03T13:12:15.493Z,12.77
2023-05-03T13:14:42.817Z,10.45
2023-05-03T13:17:10.156Z,10.55
2023-05-03T13:19:37.597Z,11.38
2023-05-03T13:22:07.479Z,11.13
2023-05-03T13:24:34.803Z,10.25
2023-05-03T13:27:01.901Z,11.52
2023-05-03T13:29:29.123Z,10.02
2023-05-03T13:31:56.395Z,9.70
2023-05-03T13:34:23.564Z,10.65
2023-05-03T13:36:50.667Z,10.80
2023-05-03T13:39:18.992Z,9.82
2023-05-03T13:41:48.187Z,8.65
2023-05-03T13:44:15.506Z,10.10
2023-05-03T13:46:43.480Z,7.75
2023-05-03T13:49:10.818Z,7.88
2023-05-03T13:51:38.321Z,7.93
2023-05-03T13:54:06.064Z,7.97
2023-05-03T13:56:33.202Z,8.75
2023-05-03T13:59:00.425Z,10.15
2023-05-03T14:01:28.958Z,10.57
2023-05-03T14:03:56.513Z,10.00
2023-05-03T14:06:23.827Z,11.00
2023-05-03T14:08:51.234Z,11.00
2023-05-03T14:11:19.371Z,9.35
2023-05-03T14:13:56.348Z,7.55
2023-05-03T14:16:36.422Z,7.40
2023-05-03T14:19:07.407Z,7.13
2023-05-03T14:21:34.621Z,8.25
2023-05-03T14:24:01.858Z,7.25
2023-05-03T14:26:29.563Z,7.38
2023-05-03T14:28:57.007Z,7.63
2023-05-03T14:31:24.149Z,7.53
2023-05-03T14:33:51.238Z,6.95
2023-05-03T14:36:18.325Z,5.47
2023-05-03T14:38:46.051Z,5.28
2023-05-03T14:41:13.077Z,4.93
2023-05-03T14:43:40.135Z,4.60
2023-05-03T14:46:08.526Z,5.38
2023-05-03T14:48:35.692Z,3.97
2023-05-03T14:51:03.616Z,4.38
2023-05-03T14:53:30.998Z,4.05
2023-05-03T14:55:58.051Z,4.70
2023-05-03T14:58:25.173Z,4.25
2023-05-03T15:00:52.323Z,4.20
2023-05-03T15:03:19.535Z,5.20
2023-05-03T15:05:47.635Z,5.13
2023-05-03T15:08:15.239Z,4.78
2023-05-03T15:10:42.625Z,4.90
2023-05-03T15:13:10.204Z,5.35
2023-05-03T15:15:43.217Z,4.78
2023-05-03T15:18:10.924Z,5.03
2023-05-03T15:20:38.462Z,5.40
2023-05-03T15:23:06.128Z,5.57
2023-05-03T15:25:33.409Z,5.53
2023-05-03T15:28:03.835Z,5.82
2023-05-03T15:30:32.042Z,5.53
2023-05-03T15:32:59.229Z,6.78
2023-05-03T15:35:26.368Z,6.35
2023-05-03T15:37:53.405Z,7.07
2023-05-03T15:40:22.369Z,7.28
2023-05-03T15:42:51.707Z,7.07
2023-05-03T15:45:19.285Z,7.10
2023-05-03T15:47:46.637Z,6.28
2023-05-03T15:50:13.895Z,5.97
2023-05-03T15:52:42.268Z,5.75
2023-05-03T15:55:09.872Z,5.38
2023-05-03T15:57:37.188Z,6.25
2023-05-03T16:00:09.207Z,7.13
2023-05-03T16:02:36.352Z,6.75
2023-05-03T16:05:03.647Z,6.78
2023-05-03T16:07:30.870Z,6.03
2023-05-03T16:09:57.982Z,6.13
2023-05-03T16:12:25.237Z,6.28
2023-05-03T16:14:52.326Z,6.03
2023-05-03T16:17:19.402Z,7.00
2023-05-03T16:19:47.684Z,6.75
2023-05-03T16:22:14.838Z,6.88
2023-05-03T16:24:41.907Z,6.50
2023-05-03T16:27:09.113Z,7.18
2023-05-03T16:29:37.541Z,6.70
2023-05-03T16:32:06.118Z,7.00
2023-05-03T16:34:32.941Z,6.28
2023-05-03T16:37:00.437Z,7.68
2023-05-03T16:39:27.054Z,6.93
2023-05-03T16:41:53.621Z,7.60
2023-05-03T16:44:20.274Z,6.65
2023-05-03T16:46:47.756Z,6.60
2023-05-03T16:49:15.012Z,6.65
2023-05-03T16:51:41.734Z,6.55
2023-05-03T16:54:08.401Z,5.68
2023-05-03T16:56:35.186Z,5.90
2023-05-03T16:59:03.621Z,6.22
2023-05-03T17:01:30.857Z,5.95
2023-05-03T17:03:57.971Z,5.95
2023-05-03T17:06:24.974Z,6.43
2023-05-03T17:08:52.258Z,5.38
2023-05-03T17:11:19.298Z,6.10
2023-05-03T17:13:47.408Z,5.45
2023-05-03T17:16:15.640Z,5.53
2023-05-03T17:18:42.752Z,5.38
2023-05-03T17:21:10.432Z,6.07
2023-05-03T17:23:39.219Z,5.75
2023-05-03T17:26:08.305Z,5.53
2023-05-03T17:28:36.085Z,5.30
2023-05-03T17:31:03.670Z,5.82
2023-05-03T17:33:30.720Z,6.93
2023-05-03T17:36:00.569Z,6.10
2023-05-03T17:38:27.687Z,6.93
2023-05-03T17:40:54.752Z,6.20
2023-05-03T17:43:21.881Z,5.72
2023-05-03T17:45:49.006Z,5.53
2023-05-03T17:48:16.191Z,6.07
2023-05-03T17:50:43.333Z,6.65
2023-05-03T17:53:10.528Z,6.45
2023-05-03T17:55:38.342Z,6.72
2023-05-03T17:58:06.408Z,6.78
2023-05-03T18:00:33.918Z,7.60
2023-05-03T18:03:01.616Z,6.82
2023-05-03T18:05:33.907Z,7.03
2023-05-03T18:08:01.519Z,6.57
2023-05-03T18:10:28.563Z,6.82
2023-05-03T18:12:55.786Z,5.90
2023-05-03T18:15:24.987Z,6.18
2023-05-03T18:17:52.804Z,5.63
2023-05-03T18:20:20.081Z,6.68
2023-05-03T18:22:47.082Z,5.90
2023-05-03T18:25:14.150Z,6.15
2023-05-03T18:27:41.282Z,5.55
2023-05-03T18:30:09.073Z,6.53
2023-05-03T18:32:36.259Z,5.82
2023-05-03T18:35:03.771Z,6.18
2023-05-03T18:37:30.854Z,5.97
2023-05-03T18:39:57.929Z,6.75
2023-05-03T18:42:25.029Z,6.75
2023-05-03T18:44:52.052Z,5.63
2023-05-03T18:47:22.127Z,5.88
2023-05-03T18:49:52.582Z,6.80
2023-05-03T18:52:22.916Z,6.15
2023-05-03T18:54:49.831Z,6.82
2023-05-03T18:57:17.340Z,6.45
2023-05-03T18:59:56.679Z,8.27
2023-05-03T19:02:30.513Z,8.52
2023-05-03T19:04:58.039Z,7.60
2023-05-03T19:07:25.339Z,8.02
2023-05-03T19:09:56.266Z,8.65
2023-05-03T19:12:23.576Z,8.50
2023-05-03T19:14:50.729Z,8.70
2023-05-03T19:17:17.837Z,8.85
2023-05-03T19:19:45.080Z,10.10
2023-05-03T19:22:12.170Z,10.45
2023-05-03T19:24:39.825Z,9.95
2023-05-03T19:27:06.993Z,9.98
2023-05-03T19:29:34.055Z,10.55
2023-05-03T19:32:01.396Z,10.73
2023-05-03T19:34:28.417Z,11.50
2023-05-03T19:36:58.757Z,11.52
2023-05-03T19:39:26.064Z,10.60
2023-05-03T19:41:53.264Z,11.80
2023-05-03T19:44:20.469Z,13.65
2023-05-03T19:46:47.770Z,12.40
2023-05-03T19:49:15.005Z,13.38
2023-05-03T19:51:42.040Z,13.48
2023-05-03T19:54:09.130Z,12.43
2023-05-03T19:56:36.441Z,13.00
2023-05-03T19:59:03.755Z,14.02
2023-05-03T20:01:31.572Z,13.98
2023-05-03T20:03:58.797Z,13.90
2023-05-03T20:06:25.622Z,14.18
2023-05-03T20:08:52.742Z,14.13
2023-05-03T20:11:20.028Z,14.48
2023-05-03T20:13:47.326Z,15.32
2023-05-03T20:16:14.914Z,14.30
2023-05-03T20:18:42.617Z,14.77
2023-05-03T20:21:09.953Z,15.00
2023-05-03T20:23:37.565Z,15.32
2023-05-03T20:26:04.605Z,15.85
2023-05-03T20:28:32.532Z,14.90
2023-05-03T20:30:59.617Z,14.52
2023-05-03T20:33:26.734Z,14.63
2023-05-03T20:35:53.737Z,14.93
2023-05-03T20:38:20.419Z,16.52
2023-05-03T20:40:47.001Z,16.20
2023-05-03T20:43:13.941Z,15.55
2023-05-03T20:45:40.582Z,16.42
2023-05-03T20:48:07.913Z,15.77
2023-05-03T20:50:34.761Z,16.55
2023-05-03T20:53:01.515Z,16.20
2023-05-03T20:55:28.182Z,15.57
2023-05-03T20:57:54.838Z,15.23
2023-05-03T21:00:22.134Z,15.43
2023-05-03T21:02:54.174Z,15.27
2023-05-03T21:05:21.779Z,15.45
2023-05-03T21:07:48.532Z,14.98
2023-05-03T21:10:15.195Z,14.77
2023-05-03T21:12:41.837Z,13.52
2023-05-03T21:15:09.226Z,13.45
2023-05-03T21:17:36.253Z,12.60
2023-05-03T21:20:04.004Z,12.93
2023-05-03T21:22:31.193Z,13.85
2023-05-03T21:24:58.268Z,14.48
2023-05-03T21:27:25.329Z,14.90
2023-05-03T21:29:52.480Z,14.10
2023-05-03T21:32:19.685Z,13.57
2023-05-03T21:34:46.704Z,13.70
2023-05-03T21:37:13.730Z,13.38
2023-05-03T21:39:40.804Z,12.48
2023-05-03T21:42:07.823Z,14.45
2023-05-03T21:44:35.357Z,13.75
2023-05-03T21:47:02.911Z,14.93
2023-05-03T21:49:30.047Z,13.23
2023-05-03T21:51:57.062Z,14.38
2023-05-03T21:54:24.198Z,13.30
2023-05-03T21:56:51.215Z,14.30
2023-05-03T21:59:18.307Z,13.30
2023-05-03T22:01:45.351Z,12.70
2023-05-03T22:04:12.421Z,12.95
2023-05-03T22:06:39.787Z,12.77
2023-05-03T22:09:06.977Z,13.88
2023-05-03T22:11:34.454Z,13.40
2023-05-03T22:14:08.020Z,13.65
2023-05-03T22:16:37.379Z,14.95
2023-05-03T22:19:04.595Z,13.95
2023-05-03T22:21:31.932Z,14.75
2023-05-03T22:23:58.558Z,14.95
2023-05-03T22:26:25.667Z,13.63
2023-05-03T22:28:52.728Z,15.40
2023-05-03T22:31:19.791Z,15.70
2023-05-03T22:33:48.741Z,14.35
2023-05-03T22:36:16.113Z,15.00
2023-05-03T22:38:43.568Z,15.70
2023-05-03T22:41:11.164Z,15.70
2023-05-03T22:43:38.179Z,16.05
2023-05-03T22:46:05.276Z,16.83
2023-05-03T22:48:33.845Z,16.20
2023-05-03T22:51:00.914Z,16.83
2023-05-03T22:53:28.088Z,16.67
2023-05-03T22:55:56.104Z,17.30
2023-05-03T22:58:23.747Z,16.90
2023-05-03T23:00:50.771Z,16.55
2023-05-03T23:03:17.844Z,17.30
2023-05-03T23:05:44.965Z,16.85
2023-05-03T23:08:14.097Z,16.38
2023-05-03T23:10:41.407Z,16.88
2023-05-03T23:13:09.479Z,17.55
2023-05-03T23:15:37.540Z,16.38
2023-05-03T23:18:04.866Z,18.05
2023-05-03T23:20:32.029Z,18.30
2023-05-03T23:22:59.318Z,18.42
2023-05-03T23:25:26.757Z,18.25
2023-05-03T23:27:53.994Z,19.17
2023-05-03T23:30:21.611Z,17.80
2023-05-03T23:32:49.194Z,17.17
2023-05-03T23:35:16.912Z,19.08
2023-05-03T23:37:43.958Z,17.17
2023-05-03T23:40:12.838Z,17.23
2023-05-03T23:42:41.164Z,17.90
2023-05-03T23:45:09.603Z,19.08
2023-05-03T23:47:37.146Z,18.70
2023-05-03T23:50:04.555Z,18.30
2023-05-03T23:52:31.969Z,18.77
2023-05-03T23:54:59.046Z,18.20
2023-05-03T23:57:26.651Z,18.05
2023-05-03T23:59:53.810Z,19.40
